Gridley, Illinois
Current Conditions -  °F | °C
As of 7:15 AM on Thursday 23 Oct 2014 (Local Time) from KPNT Reporting Station
Haze Haze  
Wind Chill: 27°   Ceiling: Unl
Heat Index: 32°   Visibility: 5mi
Dew Point: 32°   Wind: 5mph
Humidity: 99%   Direction: 130°SE
Pressure: 30.22"   Gusts: NA
Location:  40.74°N, 88.88°W
Report Text: KPNT 231215Z AUTO 13004KT 5SM BR CLR 00/00 A3022 RMK AO2 T00001001
Loading
Personal Weather Stations






























Interactive Weather Map
Tropical Storm Tracking
New forecast layout! Learn more

10-Day Weather Forecast

Advertisements
Track Severe Weather on mobile